Terminal Aerodrome Forecast
Issued by NWS Dallas/Fort Worth, TX

Home | Current Version | Previous Version | Text Only | Print | Product List | Glossary On
Versions: 1 2 3 4 5 6 7 8 9 10 11 12 13 14 15 16 17 18 19 20 21 22 23 24 25 26 27 28 29 30
000
FTUS44 KFWD 221740
TAFACT
TAF
KACT 221740Z 2218/2318 35008KT 2SM BR VCSH OVC004
     FM222100 36007KT 3SM BR OVC006
     FM230900 02005KT 2SM SHRA BR VCTS OVC006CB
     FM231300 05005KT 3SM -SHRA BR OVC005=

USA.gov is the U.S. government's official web portal to all federal, state and local government web resources and services.